WZZ312 EDFH-EDDN
Flight info
| Callsign | WZZ312 |
|---|---|
| Flight time | 0h 35m |
| Altitude | 25000 |
| Route | ULKIG1E ULKIG Z100 RUDUS L984 BOMBI Z723 KOMIB T193 ERTES |
| Aircraft | A20N/M-SDE2E3FGHIRWXY/LB1 |
Departure
| Time | 2026-04-28 16:06 |
|---|---|
| Airport | Frankfurt-Hahn Airport (EDFH) |
Arrival
| Time | 2026-04-28 16:42 |
|---|---|
| Airport | Nuremberg Airport (EDDN) |
| Time | Latitude | Longitude | Altitude | Speed | Heading |
|---|---|---|---|---|---|
| 2026-04-28 15:43 | 49.94993 | 7.27173 | 1614 ft | 0 kts | 123° |
| 2026-04-28 15:54 | 49.94996 | 7.27165 | 1614 ft | 1 kts | 124° |
| 2026-04-28 15:54 | 49.95001 | 7.27153 | 1623 ft | 1 kts | 124° |
| 2026-04-28 15:54 | 49.95006 | 7.27141 | 1620 ft | 1 kts | 124° |
| 2026-04-28 15:54 | 49.95014 | 7.27125 | 1617 ft | 3 kts | 130° |
| 2026-04-28 15:55 | 49.95030 | 7.27098 | 1622 ft | 4 kts | 136° |
| 2026-04-28 15:55 | 49.95052 | 7.27071 | 1621 ft | 4 kts | 161° |
| 2026-04-28 15:55 | 49.95072 | 7.27071 | 1621 ft | 2 kts | 216° |
| 2026-04-28 15:55 | 49.95074 | 7.27074 | 1621 ft | 0 kts | 212° |
| 2026-04-28 15:58 | 49.95070 | 7.27070 | 1620 ft | 2 kts | 212° |
| 2026-04-28 15:58 | 49.95042 | 7.27043 | 1618 ft | 7 kts | 212° |
| 2026-04-28 15:58 | 49.94988 | 7.26990 | 1620 ft | 11 kts | 212° |
| 2026-04-28 15:58 | 49.94912 | 7.26914 | 1618 ft | 14 kts | 212° |
| 2026-04-28 15:59 | 49.94824 | 7.26826 | 1618 ft | 15 kts | 212° |
| 2026-04-28 15:59 | 49.94763 | 7.26766 | 1623 ft | 16 kts | 212° |
| 2026-04-28 15:59 | 49.94638 | 7.26646 | 1623 ft | 15 kts | 200° |
| 2026-04-28 15:59 | 49.94548 | 7.26627 | 1625 ft | 14 kts | 212° |
| 2026-04-28 16:00 | 49.94466 | 7.26542 | 1625 ft | 15 kts | 213° |
| 2026-04-28 16:00 | 49.94379 | 7.26453 | 1629 ft | 15 kts | 213° |
| 2026-04-28 16:00 | 49.94287 | 7.26359 | 1628 ft | 16 kts | 213° |
| 2026-04-28 16:00 | 49.94192 | 7.26260 | 1629 ft | 17 kts | 213° |
| 2026-04-28 16:01 | 49.94093 | 7.26158 | 1631 ft | 17 kts | 214° |
| 2026-04-28 16:01 | 49.93990 | 7.26055 | 1632 ft | 18 kts | 213° |
| 2026-04-28 16:01 | 49.93885 | 7.25947 | 1634 ft | 18 kts | 213° |
| 2026-04-28 16:01 | 49.93790 | 7.25815 | 1636 ft | 18 kts | 223° |
| 2026-04-28 16:02 | 49.93703 | 7.25690 | 1638 ft | 14 kts | 256° |
| 2026-04-28 16:02 | 49.93694 | 7.25549 | 1639 ft | 13 kts | 227° |
| 2026-04-28 16:02 | 49.93615 | 7.25468 | 1640 ft | 14 kts | 212° |
| 2026-04-28 16:02 | 49.93558 | 7.25412 | 1641 ft | 15 kts | 212° |
| 2026-04-28 16:03 | 49.93464 | 7.25321 | 1643 ft | 17 kts | 212° |
| 2026-04-28 16:03 | 49.93364 | 7.25221 | 1644 ft | 17 kts | 213° |
| 2026-04-28 16:03 | 49.93261 | 7.25120 | 1646 ft | 18 kts | 212° |
| 2026-04-28 16:03 | 49.93224 | 7.25064 | 1647 ft | 3 kts | 275° |
| 2026-04-28 16:04 | 49.93215 | 7.25055 | 1647 ft | 5 kts | 209° |
| 2026-04-28 16:04 | 49.93143 | 7.25003 | 1648 ft | 16 kts | 210° |
| 2026-04-28 16:04 | 49.93080 | 7.24870 | 1649 ft | 16 kts | 278° |
| 2026-04-28 16:04 | 49.93142 | 7.24721 | 1648 ft | 14 kts | 324° |
| 2026-04-28 16:05 | 49.93180 | 7.24729 | 1648 ft | 0 kts | 33° |
| 2026-04-28 16:05 | 49.93194 | 7.24744 | 1648 ft | 17 kts | 33° |
| 2026-04-28 16:05 | 49.93504 | 7.25044 | 1646 ft | 86 kts | 32° |
| 2026-04-28 16:06 | 49.94174 | 7.25702 | 1634 ft | 139 kts | 32° |
| 2026-04-28 16:06 | 49.95106 | 7.26633 | 1691 ft | 173 kts | 32° |
| 2026-04-28 16:06 | 49.96101 | 7.27613 | 2302 ft | 171 kts | 31° |
| 2026-04-28 16:06 | 49.97124 | 7.28572 | 2846 ft | 176 kts | 30° |
| 2026-04-28 16:07 | 49.98197 | 7.29550 | 3368 ft | 184 kts | 30° |
| 2026-04-28 16:07 | 49.99335 | 7.30601 | 3818 ft | 196 kts | 30° |
| 2026-04-28 16:07 | 50.01862 | 7.33040 | 4751 ft | 236 kts | 33° |
| 2026-04-28 16:08 | 50.03425 | 7.34075 | 5300 ft | 256 kts | 7° |
| 2026-04-28 16:08 | 50.05246 | 7.33811 | 5890 ft | 273 kts | 338° |
| 2026-04-28 16:08 | 50.06815 | 7.32165 | 6793 ft | 276 kts | 310° |
| 2026-04-28 16:09 | 50.07782 | 7.26557 | 8655 ft | 281 kts | 256° |
| 2026-04-28 16:09 | 50.06992 | 7.23886 | 9519 ft | 285 kts | 231° |
| 2026-04-28 16:09 | 50.05459 | 7.21938 | 10397 ft | 289 kts | 205° |
| 2026-04-28 16:10 | 50.01512 | 7.21923 | 12068 ft | 298 kts | 154° |
| 2026-04-28 16:10 | 49.99802 | 7.23687 | 12867 ft | 303 kts | 139° |
| 2026-04-28 16:10 | 49.96513 | 7.28180 | 13806 ft | 336 kts | 140° |
| 2026-04-28 16:11 | 49.93283 | 7.33802 | 14758 ft | 362 kts | 119° |
| 2026-04-28 16:11 | 49.91708 | 7.41330 | 16231 ft | 370 kts | 103° |
| 2026-04-28 16:12 | 49.90514 | 7.49175 | 17615 ft | 378 kts | 103° |
| 2026-04-28 16:12 | 49.89909 | 7.53111 | 18272 ft | 382 kts | 103° |
| 2026-04-28 16:13 | 49.88659 | 7.61195 | 19548 ft | 389 kts | 103° |
| 2026-04-28 16:13 | 49.88025 | 7.65299 | 20168 ft | 393 kts | 102° |
| 2026-04-28 16:13 | 49.88352 | 7.73731 | 21328 ft | 401 kts | 69° |
| 2026-04-28 16:14 | 49.91386 | 7.81045 | 22440 ft | 409 kts | 51° |
| 2026-04-28 16:14 | 49.94947 | 7.88009 | 23524 ft | 415 kts | 51° |
| 2026-04-28 16:15 | 49.98527 | 7.95147 | 24553 ft | 422 kts | 52° |
| 2026-04-28 16:15 | 50.00330 | 7.98768 | 24900 ft | 426 kts | 52° |
| 2026-04-28 16:15 | 50.02140 | 8.02421 | 24995 ft | 426 kts | 53° |
| 2026-04-28 16:16 | 50.04596 | 8.10700 | 25005 ft | 425 kts | 79° |
| 2026-04-28 16:16 | 50.04885 | 8.15263 | 24999 ft | 425 kts | 89° |
| 2026-04-28 16:17 | 50.04979 | 8.24450 | 25003 ft | 425 kts | 89° |
| 2026-04-28 16:17 | 50.05027 | 8.29039 | 25003 ft | 425 kts | 89° |
| 2026-04-28 16:17 | 50.05076 | 8.33646 | 25004 ft | 425 kts | 89° |
| 2026-04-28 16:17 | 50.05125 | 8.38234 | 25000 ft | 425 kts | 89° |
| 2026-04-28 16:18 | 50.05173 | 8.42832 | 24995 ft | 425 kts | 89° |
| 2026-04-28 16:18 | 50.05219 | 8.47423 | 25002 ft | 425 kts | 89° |
| 2026-04-28 16:18 | 50.05260 | 8.52022 | 24995 ft | 425 kts | 90° |
| 2026-04-28 16:18 | 50.05299 | 8.56606 | 25002 ft | 425 kts | 89° |
| 2026-04-28 16:19 | 50.05340 | 8.61212 | 25003 ft | 425 kts | 89° |
| 2026-04-28 16:19 | 50.05389 | 8.65800 | 25003 ft | 425 kts | 89° |
| 2026-04-28 16:19 | 50.05471 | 8.70390 | 24997 ft | 425 kts | 88° |
| 2026-04-28 16:19 | 50.05584 | 8.74985 | 25000 ft | 425 kts | 85° |
| 2026-04-28 16:20 | 50.06011 | 8.79532 | 25001 ft | 425 kts | 77° |
| 2026-04-28 16:20 | 50.06837 | 8.83949 | 25003 ft | 425 kts | 70° |
| 2026-04-28 16:20 | 50.08004 | 8.88169 | 24998 ft | 425 kts | 65° |
| 2026-04-28 16:20 | 50.09223 | 8.92369 | 25001 ft | 425 kts | 66° |
| 2026-04-28 16:21 | 50.10419 | 8.96537 | 24995 ft | 425 kts | 66° |
| 2026-04-28 16:21 | 50.11622 | 9.00751 | 25004 ft | 425 kts | 66° |
| 2026-04-28 16:21 | 50.12821 | 9.04960 | 25000 ft | 425 kts | 66° |
| 2026-04-28 16:21 | 50.13956 | 9.09225 | 25004 ft | 425 kts | 71° |
| 2026-04-28 16:22 | 50.14879 | 9.13605 | 24999 ft | 425 kts | 72° |
| 2026-04-28 16:22 | 50.15804 | 9.17972 | 24995 ft | 425 kts | 72° |
| 2026-04-28 16:22 | 50.16736 | 9.22357 | 25007 ft | 425 kts | 72° |
| 2026-04-28 16:22 | 50.17572 | 9.26762 | 25000 ft | 425 kts | 77° |
| 2026-04-28 16:23 | 50.18064 | 9.31289 | 25000 ft | 425 kts | 84° |
| 2026-04-28 16:23 | 50.18209 | 9.35905 | 25006 ft | 425 kts | 89° |
| 2026-04-28 16:23 | 50.18255 | 9.40505 | 24999 ft | 425 kts | 89° |
| 2026-04-28 16:23 | 50.18314 | 9.45117 | 25004 ft | 425 kts | 89° |
| 2026-04-28 16:24 | 50.18374 | 9.49723 | 25002 ft | 425 kts | 89° |
| 2026-04-28 16:24 | 50.18432 | 9.54331 | 24996 ft | 425 kts | 89° |
| 2026-04-28 16:24 | 50.18489 | 9.58934 | 25000 ft | 424 kts | 89° |
| 2026-04-28 16:24 | 50.18546 | 9.63537 | 24810 ft | 425 kts | 89° |
| 2026-04-28 16:25 | 50.18607 | 9.68156 | 24287 ft | 426 kts | 89° |
| 2026-04-28 16:25 | 50.18662 | 9.72791 | 23508 ft | 429 kts | 89° |
| 2026-04-28 16:25 | 50.18711 | 9.77423 | 22975 ft | 424 kts | 89° |
| 2026-04-28 16:25 | 50.18753 | 9.82005 | 22422 ft | 420 kts | 89° |
| 2026-04-28 16:26 | 50.18790 | 9.86532 | 21846 ft | 415 kts | 89° |
| 2026-04-28 16:26 | 50.18824 | 9.90974 | 21294 ft | 411 kts | 89° |
| 2026-04-28 16:26 | 50.18857 | 9.95408 | 20735 ft | 406 kts | 89° |
| 2026-04-28 16:26 | 50.18748 | 9.99779 | 20182 ft | 401 kts | 99° |
| 2026-04-28 16:27 | 50.17953 | 10.03907 | 19634 ft | 396 kts | 116° |
| 2026-04-28 16:27 | 50.16489 | 10.07490 | 19094 ft | 390 kts | 130° |
| 2026-04-28 16:27 | 50.13008 | 10.13869 | 18013 ft | 382 kts | 131° |
| 2026-04-28 16:28 | 50.11293 | 10.17001 | 17487 ft | 379 kts | 131° |
| 2026-04-28 16:28 | 50.10169 | 10.19055 | 17146 ft | 376 kts | 131° |
| 2026-04-28 16:28 | 50.07953 | 10.23235 | 16437 ft | 372 kts | 126° |
| 2026-04-28 16:28 | 50.06600 | 10.26611 | 15911 ft | 368 kts | 118° |
| 2026-04-28 16:29 | 50.04425 | 10.33755 | 14900 ft | 362 kts | 116° |
| 2026-04-28 16:29 | 50.02282 | 10.40778 | 13892 ft | 356 kts | 116° |
| 2026-04-28 16:30 | 50.01220 | 10.44242 | 13392 ft | 353 kts | 116° |
| 2026-04-28 16:30 | 50.00182 | 10.47621 | 12905 ft | 350 kts | 116° |
| 2026-04-28 16:30 | 49.99136 | 10.51026 | 12410 ft | 347 kts | 116° |
| 2026-04-28 16:30 | 49.98097 | 10.54399 | 11926 ft | 345 kts | 116° |
| 2026-04-28 16:31 | 49.97067 | 10.57742 | 11441 ft | 342 kts | 116° |
| 2026-04-28 16:31 | 49.95742 | 10.60755 | 10962 ft | 337 kts | 136° |
| 2026-04-28 16:31 | 49.93823 | 10.62766 | 10491 ft | 332 kts | 158° |
| 2026-04-28 16:31 | 49.91616 | 10.63536 | 10281 ft | 320 kts | 173° |
| 2026-04-28 16:32 | 49.89447 | 10.63966 | 10149 ft | 307 kts | 173° |
| 2026-04-28 16:32 | 49.85355 | 10.64789 | 9686 ft | 286 kts | 173° |
| 2026-04-28 16:32 | 49.83384 | 10.65187 | 9517 ft | 290 kts | 173° |
| 2026-04-28 16:33 | 49.81349 | 10.65595 | 9163 ft | 298 kts | 173° |
| 2026-04-28 16:33 | 49.79996 | 10.65867 | 9034 ft | 293 kts | 173° |
| 2026-04-28 16:33 | 49.77325 | 10.66403 | 8429 ft | 288 kts | 173° |
| 2026-04-28 16:33 | 49.75367 | 10.66796 | 8044 ft | 279 kts | 173° |
| 2026-04-28 16:34 | 49.73472 | 10.67179 | 7701 ft | 270 kts | 173° |
| 2026-04-28 16:34 | 49.71639 | 10.67547 | 7364 ft | 261 kts | 173° |
| 2026-04-28 16:34 | 49.69863 | 10.67902 | 7032 ft | 254 kts | 173° |
| 2026-04-28 16:34 | 49.67989 | 10.68275 | 6672 ft | 287 kts | 173° |
| 2026-04-28 16:35 | 49.65985 | 10.68673 | 6526 ft | 290 kts | 173° |
| 2026-04-28 16:35 | 49.64020 | 10.69066 | 6446 ft | 280 kts | 173° |
| 2026-04-28 16:35 | 49.62135 | 10.69445 | 6326 ft | 265 kts | 173° |
| 2026-04-28 16:35 | 49.60358 | 10.69799 | 6131 ft | 253 kts | 173° |
| 2026-04-28 16:36 | 49.58619 | 10.70146 | 5830 ft | 251 kts | 173° |
| 2026-04-28 16:36 | 49.56900 | 10.70489 | 5582 ft | 245 kts | 173° |
| 2026-04-28 16:36 | 49.55271 | 10.70838 | 5401 ft | 229 kts | 167° |
| 2026-04-28 16:36 | 49.53920 | 10.71945 | 5224 ft | 215 kts | 134° |
| 2026-04-28 16:37 | 49.53209 | 10.73848 | 5081 ft | 201 kts | 104° |
| 2026-04-28 16:37 | 49.52968 | 10.75917 | 4846 ft | 193 kts | 96° |
| 2026-04-28 16:37 | 49.52809 | 10.77930 | 4642 ft | 184 kts | 99° |
| 2026-04-28 16:38 | 49.52439 | 10.81683 | 4142 ft | 171 kts | 99° |
| 2026-04-28 16:38 | 49.52266 | 10.83441 | 3914 ft | 161 kts | 99° |
| 2026-04-28 16:38 | 49.52099 | 10.85130 | 3722 ft | 162 kts | 99° |
| 2026-04-28 16:38 | 49.51931 | 10.86840 | 3498 ft | 160 kts | 99° |
| 2026-04-28 16:39 | 49.51765 | 10.88537 | 3273 ft | 160 kts | 99° |
| 2026-04-28 16:39 | 49.51599 | 10.90209 | 3066 ft | 160 kts | 99° |
| 2026-04-28 16:39 | 49.51435 | 10.91895 | 2852 ft | 159 kts | 99° |
| 2026-04-28 16:39 | 49.51266 | 10.93602 | 2637 ft | 159 kts | 99° |
| 2026-04-28 16:40 | 49.51105 | 10.95255 | 2429 ft | 158 kts | 99° |
| 2026-04-28 16:40 | 49.50940 | 10.96926 | 2218 ft | 158 kts | 99° |
| 2026-04-28 16:40 | 49.50776 | 10.98590 | 2009 ft | 157 kts | 99° |
| 2026-04-28 16:40 | 49.50612 | 11.00252 | 1800 ft | 156 kts | 99° |
| 2026-04-28 16:41 | 49.50451 | 11.01892 | 1596 ft | 155 kts | 99° |
| 2026-04-28 16:41 | 49.50291 | 11.03536 | 1372 ft | 156 kts | 98° |
| 2026-04-28 16:41 | 49.50132 | 11.05170 | 1153 ft | 154 kts | 99° |
| 2026-04-28 16:41 | 49.49971 | 11.06763 | 1037 ft | 144 kts | 99° |
| 2026-04-28 16:42 | 49.49844 | 11.08046 | 1045 ft | 90 kts | 99° |
| 2026-04-28 16:42 | 49.49796 | 11.08519 | 1043 ft | 18 kts | 115° |
| 2026-04-28 16:42 | 49.49730 | 11.08567 | 1044 ft | 0 kts | 194° |
| 2026-04-28 16:43 | 49.49729 | 11.08567 | 1044 ft | 1 kts | 194° |
| 2026-04-28 16:43 | 49.49702 | 11.08548 | 1044 ft | 9 kts | 211° |
| 2026-04-28 16:43 | 49.49646 | 11.08455 | 1043 ft | 15 kts | 234° |
| 2026-04-28 16:44 | 49.49576 | 11.08360 | 1042 ft | 14 kts | 191° |
| 2026-04-28 16:44 | 49.49535 | 11.08283 | 1039 ft | 12 kts | 278° |
| 2026-04-28 16:44 | 49.49549 | 11.08138 | 1037 ft | 16 kts | 279° |
| 2026-04-28 16:44 | 49.49567 | 11.07963 | 1038 ft | 17 kts | 278° |
| 2026-04-28 16:45 | 49.49581 | 11.07825 | 1038 ft | 9 kts | 278° |
| 2026-04-28 16:45 | 49.49592 | 11.07707 | 1037 ft | 13 kts | 278° |
| 2026-04-28 16:45 | 49.49574 | 11.07594 | 1034 ft | 10 kts | 197° |
| 2026-04-28 16:45 | 49.49543 | 11.07587 | 1032 ft | 3 kts | 188° |
| 2026-04-28 16:46 | 49.49535 | 11.07585 | 1032 ft | 0 kts | 188° |